createdAt,value
2018-04-17T00:02:21.113Z,11.10
2018-04-17T00:04:49.405Z,9.20
2018-04-17T00:07:17.700Z,10.70
2018-04-17T00:09:45.250Z,10.90
2018-04-17T00:12:13.547Z,11.10
2018-04-17T00:14:41.056Z,8.90
2018-04-17T00:17:08.592Z,9.50
2018-04-17T00:19:36.105Z,9.77
2018-04-17T00:22:04.400Z,11.80
2018-04-17T00:24:32.683Z,11.70
2018-04-17T00:27:00.963Z,12.10
2018-04-17T00:29:29.257Z,11.63
2018-04-17T00:31:56.784Z,10.43
2018-04-17T00:34:24.299Z,10.00
2018-04-17T00:36:51.824Z,10.03
2018-04-17T00:39:20.122Z,8.93
2018-04-17T00:41:48.395Z,9.63
2018-04-17T00:44:16.696Z,8.30
2018-04-17T00:46:44.208Z,8.40
2018-04-17T00:49:11.740Z,7.63
2018-04-17T00:51:39.257Z,7.30
2018-04-17T00:54:06.773Z,6.60
2018-04-17T00:56:34.277Z,6.03
2018-04-17T00:59:01.797Z,5.87
2018-04-17T01:01:29.331Z,5.73
2018-04-17T01:03:56.856Z,6.17
2018-04-17T01:06:24.381Z,5.80
2018-04-17T01:08:51.887Z,7.20
2018-04-17T01:11:19.429Z,7.60
2018-04-17T01:13:46.928Z,8.30
2018-04-17T01:16:14.481Z,7.73
2018-04-17T01:18:45.293Z,8.70
2018-04-17T01:21:12.803Z,10.07
2018-04-17T01:23:41.082Z,9.77
2018-04-17T01:26:09.355Z,11.37
2018-04-17T01:28:36.888Z,11.00
2018-04-17T01:31:04.415Z,11.10
2018-04-17T01:33:31.946Z,10.97
2018-04-17T01:36:00.913Z,9.60
2018-04-17T01:38:28.442Z,10.10
2018-04-17T01:40:55.969Z,8.80
2018-04-17T01:43:23.518Z,6.80
2018-04-17T01:45:51.041Z,7.63
2018-04-17T01:48:18.563Z,6.20
2018-04-17T01:50:46.085Z,6.87
2018-04-17T01:53:13.613Z,7.20
2018-04-17T01:55:41.910Z,5.67
2018-04-17T01:58:09.429Z,4.57
2018-04-17T02:00:36.945Z,5.00
2018-04-17T02:03:04.461Z,5.00
2018-04-17T02:05:31.995Z,5.10
2018-04-17T02:07:59.511Z,4.90
2018-04-17T02:10:27.793Z,4.83
2018-04-17T02:12:56.086Z,4.30
2018-04-17T02:15:23.614Z,4.70
2018-04-17T02:17:51.133Z,4.33
2018-04-17T02:20:18.675Z,4.30
2018-04-17T02:22:46.197Z,4.17
2018-04-17T02:25:13.699Z,4.97
2018-04-17T02:27:41.984Z,3.77
2018-04-17T02:30:09.495Z,3.60
2018-04-17T02:32:37.026Z,4.40
2018-04-17T02:35:04.542Z,4.50
2018-04-17T02:37:32.077Z,4.20
2018-04-17T02:39:59.591Z,4.93
2018-04-17T02:42:27.867Z,3.80
2018-04-17T02:44:56.165Z,4.90
2018-04-17T02:47:23.671Z,5.20
2018-04-17T02:49:51.208Z,4.33
2018-04-17T02:52:18.733Z,4.60
2018-04-17T02:54:47.028Z,4.20
2018-04-17T02:57:14.537Z,4.60
2018-04-17T02:59:42.069Z,4.57
2018-04-17T03:02:09.582Z,3.93
2018-04-17T03:04:37.107Z,4.50
2018-04-17T03:07:04.768Z,4.93
2018-04-17T03:09:32.310Z,5.17
2018-04-17T03:12:00.591Z,4.17
2018-04-17T03:14:28.869Z,4.60
2018-04-17T03:16:57.164Z,4.47
2018-04-17T03:19:24.684Z,4.00
2018-04-17T03:21:52.206Z,4.03
2018-04-17T03:24:19.726Z,4.00
2018-04-17T03:26:48.019Z,4.20
2018-04-17T03:29:16.293Z,4.40
2018-04-17T03:31:44.600Z,4.70
2018-04-17T03:34:12.113Z,5.50
2018-04-17T03:36:39.653Z,4.47
2018-04-17T03:39:07.199Z,4.67
2018-04-17T03:41:34.921Z,4.73
2018-04-17T03:44:02.462Z,5.40
2018-04-17T03:46:29.991Z,4.57
2018-04-17T03:48:58.391Z,4.70
2018-04-17T03:51:25.910Z,4.30
2018-04-17T03:53:54.216Z,4.10
2018-04-17T03:56:21.729Z,5.37
2018-04-17T03:58:50.012Z,5.43
2018-04-17T04:01:17.540Z,8.00
2018-04-17T04:03:45.054Z,7.93
2018-04-17T04:06:12.596Z,8.20
2018-04-17T04:08:40.114Z,7.10
2018-04-17T04:11:07.640Z,7.30
2018-04-17T04:13:35.156Z,7.07
2018-04-17T04:16:02.688Z,7.23
2018-04-17T04:18:42.925Z,7.80
2018-04-17T04:21:23.164Z,7.40
2018-04-17T04:24:02.624Z,6.40
2018-04-17T04:26:31.861Z,6.07
2018-04-17T04:28:59.381Z,6.43
2018-04-17T04:31:26.887Z,6.23
2018-04-17T04:33:54.429Z,7.17
2018-04-17T04:36:21.955Z,6.57
2018-04-17T04:38:49.472Z,5.63
2018-04-17T04:41:16.979Z,6.30
2018-04-17T04:43:44.512Z,6.40
2018-04-17T04:46:12.039Z,6.40
2018-04-17T04:48:40.344Z,6.40
2018-04-17T04:51:08.623Z,6.60
2018-04-17T04:53:36.143Z,6.77
2018-04-17T04:56:04.441Z,6.60
2018-04-17T04:58:32.720Z,6.10
2018-04-17T05:01:01.024Z,5.30
2018-04-17T05:03:28.531Z,5.83
2018-04-17T05:05:56.067Z,6.30
2018-04-17T05:08:23.589Z,6.33
2018-04-17T05:10:51.866Z,6.37
2018-04-17T05:13:19.399Z,5.57
2018-04-17T05:15:46.906Z,5.37
2018-04-17T05:18:15.221Z,5.10
2018-04-17T05:20:42.735Z,7.10
2018-04-17T05:23:10.276Z,5.77
2018-04-17T05:25:37.793Z,5.80
2018-04-17T05:28:05.340Z,5.43
2018-04-17T05:30:33.603Z,5.57
2018-04-17T05:33:01.117Z,5.83
2018-04-17T05:35:28.648Z,5.60
2018-04-17T05:37:56.946Z,5.20
2018-04-17T05:40:24.467Z,5.37
2018-04-17T05:42:51.985Z,5.53
2018-04-17T05:45:19.511Z,6.67
2018-04-17T05:47:47.027Z,6.20
2018-04-17T05:50:14.631Z,6.50
2018-04-17T05:52:42.092Z,5.80
2018-04-17T05:55:09.616Z,6.60
2018-04-17T05:57:37.138Z,7.00
2018-04-17T06:00:05.443Z,6.80
2018-04-17T06:02:32.962Z,6.60
2018-04-17T06:05:00.482Z,5.90
2018-04-17T06:07:28.008Z,5.10
2018-04-17T06:09:56.299Z,4.27
2018-04-17T06:12:24.574Z,4.37
2018-04-17T06:14:52.897Z,4.10
2018-04-17T06:17:20.402Z,4.20
2018-04-17T06:19:47.929Z,4.77
2018-04-17T06:22:15.468Z,4.70
2018-04-17T06:24:42.998Z,3.90
2018-04-17T06:27:10.545Z,3.43
2018-04-17T06:29:38.077Z,3.60
2018-04-17T06:32:05.589Z,4.50
2018-04-17T06:34:33.099Z,4.50
2018-04-17T06:37:00.620Z,3.80
2018-04-17T06:39:28.919Z,4.40
2018-04-17T06:41:57.271Z,3.97
2018-04-17T06:44:24.746Z,4.60
2018-04-17T06:46:52.290Z,3.97
2018-04-17T06:49:19.819Z,3.20
2018-04-17T06:51:47.326Z,3.67
2018-04-17T06:54:14.851Z,3.47
2018-04-17T06:56:42.372Z,3.70
2018-04-17T06:59:10.661Z,2.97
2018-04-17T07:01:38.936Z,3.20
2018-04-17T07:04:07.231Z,3.47
2018-04-17T07:06:34.741Z,2.60
2018-04-17T07:09:02.249Z,3.50
2018-04-17T07:11:30.546Z,3.43
2018-04-17T07:13:58.090Z,3.30
2018-04-17T07:16:26.416Z,3.00
2018-04-17T07:18:53.917Z,3.10
2018-04-17T07:21:21.456Z,3.30
2018-04-17T07:23:48.966Z,2.83
2018-04-17T07:26:17.263Z,3.73
2018-04-17T07:28:44.797Z,3.20
2018-04-17T07:31:12.348Z,3.53
2018-04-17T07:33:39.866Z,3.47
2018-04-17T07:36:07.377Z,4.10
2018-04-17T07:38:34.900Z,3.47
2018-04-17T07:41:02.417Z,3.57
2018-04-17T07:43:29.933Z,3.13
2018-04-17T07:45:57.452Z,3.07
2018-04-17T07:48:37.493Z,3.20
2018-04-17T07:51:05.785Z,3.20
2018-04-17T07:53:34.073Z,3.40
2018-04-17T07:56:02.361Z,3.40
2018-04-17T07:58:29.902Z,3.27
2018-04-17T08:00:57.411Z,4.40
2018-04-17T08:03:24.918Z,3.23
2018-04-17T08:05:52.445Z,2.67
2018-04-17T08:08:19.977Z,2.97
2018-04-17T08:10:47.504Z,3.77
2018-04-17T08:13:14.992Z,3.33
2018-04-17T08:15:43.292Z,3.77
2018-04-17T08:18:10.810Z,3.80
2018-04-17T08:20:38.356Z,3.60
2018-04-17T08:23:05.864Z,3.50
2018-04-17T08:25:34.139Z,3.20
2018-04-17T08:28:02.428Z,3.97
2018-04-17T08:30:30.711Z,3.13
2018-04-17T08:32:59.031Z,3.47
2018-04-17T08:35:26.539Z,3.80
2018-04-17T08:37:54.071Z,2.90
2018-04-17T08:40:21.579Z,3.50
2018-04-17T08:42:49.935Z,3.30
2018-04-17T08:45:17.417Z,3.47
2018-04-17T08:47:45.704Z,3.70
2018-04-17T08:50:14.000Z,3.60
2018-04-17T08:52:41.527Z,3.80
2018-04-17T08:55:09.060Z,3.83
2018-04-17T08:57:36.585Z,3.40
2018-04-17T09:00:04.117Z,3.20
2018-04-17T09:02:31.648Z,3.20
2018-04-17T09:04:59.190Z,3.53
2018-04-17T09:07:26.715Z,4.00
2018-04-17T09:09:54.230Z,4.03
2018-04-17T09:12:21.753Z,3.80
2018-04-17T09:14:50.042Z,3.67
2018-04-17T09:17:18.336Z,3.67
2018-04-17T09:19:45.841Z,3.70
2018-04-17T09:22:13.355Z,4.20
2018-04-17T09:24:41.650Z,4.67
2018-04-17T09:27:09.186Z,4.33
2018-04-17T09:29:37.460Z,3.63
2018-04-17T09:32:04.989Z,4.37
2018-04-17T09:34:33.313Z,3.90
2018-04-17T09:37:00.812Z,4.30
2018-04-17T09:39:28.320Z,4.87
2018-04-17T09:41:55.841Z,4.40
2018-04-17T09:44:23.370Z,3.43
2018-04-17T09:46:51.637Z,4.27
2018-04-17T09:49:19.177Z,5.00
2018-04-17T09:51:46.689Z,5.60
2018-04-17T09:54:15.000Z,4.40
2018-04-17T09:56:42.503Z,5.70
2018-04-17T09:59:10.051Z,6.07
2018-04-17T10:01:37.564Z,4.67
2018-04-17T10:04:05.873Z,6.00
2018-04-17T10:06:33.394Z,5.20
2018-04-17T10:09:01.736Z,4.90
2018-04-17T10:11:29.221Z,5.20
2018-04-17T10:13:56.742Z,4.90
2018-04-17T10:16:24.266Z,5.23
2018-04-17T10:18:52.539Z,5.37
2018-04-17T10:21:20.068Z,5.10
2018-04-17T10:23:47.590Z,4.53
2018-04-17T10:26:15.915Z,4.60
2018-04-17T10:28:43.446Z,4.40
2018-04-17T10:31:10.951Z,4.80
2018-04-17T10:33:38.478Z,4.83
2018-04-17T10:36:06.005Z,5.17
2018-04-17T10:38:33.510Z,4.87
2018-04-17T10:41:01.031Z,5.10
2018-04-17T10:43:28.546Z,5.33
2018-04-17T10:45:56.062Z,5.00
2018-04-17T10:48:24.343Z,5.30
2018-04-17T10:50:51.846Z,5.13
2018-04-17T10:53:19.376Z,4.53
2018-04-17T10:55:47.655Z,3.30
2018-04-17T10:58:15.952Z,3.50
2018-04-17T11:00:44.250Z,3.73
2018-04-17T11:03:11.759Z,3.30
2018-04-17T11:05:39.283Z,2.23
2018-04-17T11:08:06.812Z,2.60
2018-04-17T11:10:35.116Z,3.13
2018-04-17T11:13:02.624Z,3.27
2018-04-17T11:15:30.147Z,2.60
2018-04-17T11:17:57.672Z,3.10
2018-04-17T11:20:25.186Z,2.67
2018-04-17T11:22:52.727Z,2.30
2018-04-17T11:25:20.232Z,2.73
2018-04-17T11:27:47.763Z,1.70
2018-04-17T11:30:15.296Z,2.53
2018-04-17T11:32:43.597Z,2.23
2018-04-17T11:35:11.107Z,2.27
2018-04-17T11:37:38.613Z,2.20
2018-04-17T11:40:06.903Z,2.80
2018-04-17T11:42:34.421Z,2.83
2018-04-17T11:45:01.945Z,2.43
2018-04-17T11:47:29.479Z,3.10
2018-04-17T11:49:57.769Z,2.30
2018-04-17T11:52:26.041Z,2.93
2018-04-17T11:54:54.356Z,1.87
2018-04-17T11:57:21.875Z,2.13
2018-04-17T11:59:49.410Z,2.47
2018-04-17T12:02:16.938Z,2.67
2018-04-17T12:04:44.462Z,2.50
2018-04-17T12:07:12.008Z,3.70
2018-04-17T12:09:39.531Z,3.70
2018-04-17T12:12:07.064Z,2.83
2018-04-17T12:14:34.595Z,2.77
2018-04-17T12:17:02.122Z,2.80
2018-04-17T12:19:29.643Z,2.90
2018-04-17T12:21:57.173Z,3.17
2018-04-17T12:24:24.685Z,3.47
2018-04-17T12:26:52.983Z,3.17
2018-04-17T12:29:20.519Z,3.70
2018-04-17T12:31:48.780Z,3.57
2018-04-17T12:34:16.305Z,2.43
2018-04-17T12:36:43.825Z,3.70
2018-04-17T12:39:11.383Z,3.50
2018-04-17T12:41:38.895Z,3.33
2018-04-17T12:44:06.404Z,3.73
2018-04-17T12:46:33.930Z,3.20
2018-04-17T12:49:01.443Z,4.87
2018-04-17T12:51:28.984Z,5.40
2018-04-17T12:53:56.500Z,4.07
2018-04-17T12:56:24.779Z,5.17
2018-04-17T12:58:53.081Z,4.70
2018-04-17T13:01:20.582Z,4.60
2018-04-17T13:03:48.108Z,4.83
2018-04-17T13:06:15.633Z,4.50
2018-04-17T13:08:43.187Z,5.70
2018-04-17T13:11:10.703Z,4.53
2018-04-17T13:13:38.218Z,3.83
2018-04-17T13:16:05.762Z,5.30
2018-04-17T13:18:33.299Z,3.73
2018-04-17T13:21:00.809Z,3.67
2018-04-17T13:23:29.109Z,4.10
2018-04-17T13:25:57.406Z,3.53
2018-04-17T13:28:24.930Z,2.90
2018-04-17T13:30:52.466Z,3.47
2018-04-17T13:33:19.990Z,3.97
2018-04-17T13:35:48.272Z,4.63
2018-04-17T13:38:16.566Z,4.60
2018-04-17T13:40:44.096Z,4.60
2018-04-17T13:43:11.646Z,5.60
2018-04-17T13:45:39.163Z,7.43
2018-04-17T13:48:06.693Z,8.20
2018-04-17T13:50:34.981Z,8.83
2018-04-17T13:53:03.275Z,8.20
2018-04-17T13:55:30.792Z,7.00
2018-04-17T13:57:58.322Z,6.90
2018-04-17T14:00:25.850Z,7.40
2018-04-17T14:02:54.124Z,7.63
2018-04-17T14:05:22.424Z,5.50
2018-04-17T14:07:49.947Z,7.93
2018-04-17T14:10:17.506Z,6.40
2018-04-17T14:12:45.042Z,6.90
2018-04-17T14:15:12.554Z,6.33
2018-04-17T14:17:40.068Z,5.80
2018-04-17T14:20:07.612Z,6.93
2018-04-17T14:22:35.115Z,6.30
2018-04-17T14:25:02.632Z,5.20
2018-04-17T14:27:30.925Z,6.37
2018-04-17T14:29:58.442Z,3.87
2018-04-17T14:32:26.752Z,2.40
2018-04-17T14:34:55.028Z,2.57
2018-04-17T14:37:23.316Z,3.13
2018-04-17T14:39:51.590Z,4.30
2018-04-17T14:42:19.882Z,3.83
2018-04-17T14:44:48.151Z,3.27
2018-04-17T14:47:16.402Z,3.20
2018-04-17T14:49:43.999Z,5.70
2018-04-17T14:52:11.467Z,5.83
2018-04-17T14:54:39.775Z,6.10
2018-04-17T14:57:07.315Z,4.87
2018-04-17T14:59:35.613Z,5.27
2018-04-17T15:02:03.114Z,4.90
2018-04-17T15:04:30.637Z,4.90
2018-04-17T15:06:58.161Z,3.20
2018-04-17T15:09:25.685Z,3.87
2018-04-17T15:11:53.216Z,3.30
2018-04-17T15:14:21.525Z,3.37
2018-04-17T15:16:49.022Z,3.33
2018-04-17T15:19:16.549Z,2.03
2018-04-17T15:21:44.061Z,2.00
2018-04-17T15:24:11.602Z,2.70
2018-04-17T15:26:39.115Z,2.30
2018-04-17T15:29:07.405Z,2.20
2018-04-17T15:31:34.932Z,2.40
2018-04-17T15:34:02.461Z,2.20
2018-04-17T15:36:30.008Z,2.73
2018-04-17T15:38:57.532Z,2.77
2018-04-17T15:41:25.074Z,3.90
2018-04-17T15:43:52.580Z,3.73
2018-04-17T15:46:20.115Z,3.73
2018-04-17T15:48:47.647Z,4.00
2018-04-17T15:51:15.185Z,3.50
2018-04-17T15:53:42.708Z,4.00
2018-04-17T15:56:10.225Z,3.00
2018-04-17T15:58:37.742Z,3.97
2018-04-17T16:01:06.025Z,2.33
2018-04-17T16:03:33.583Z,2.70
2018-04-17T16:06:01.080Z,2.70
2018-04-17T16:08:28.595Z,2.57
2018-04-17T16:10:56.562Z,2.50
2018-04-17T16:13:24.078Z,2.27
2018-04-17T16:15:51.601Z,2.47
2018-04-17T16:18:19.151Z,2.80
2018-04-17T16:20:46.673Z,2.60
2018-04-17T16:23:14.216Z,3.00
2018-04-17T16:25:42.507Z,3.10
2018-04-17T16:28:10.815Z,2.60
2018-04-17T16:30:38.328Z,2.77
2018-04-17T16:33:05.856Z,2.07
2018-04-17T16:35:33.399Z,2.60
2018-04-17T16:38:00.926Z,2.47
2018-04-17T16:40:29.228Z,1.93
2018-04-17T16:42:56.758Z,2.53
2018-04-17T16:45:24.279Z,1.80
2018-04-17T16:47:51.847Z,1.87
2018-04-17T16:50:19.382Z,2.93
2018-04-17T16:52:47.707Z,2.00
2018-04-17T16:55:15.242Z,2.03
2018-04-17T16:57:42.793Z,4.23
2018-04-17T17:00:11.068Z,3.00
2018-04-17T17:02:39.389Z,2.73
2018-04-17T17:05:06.948Z,2.73
2018-04-17T17:07:34.489Z,3.40
2018-04-17T17:10:02.026Z,2.53
2018-04-17T17:12:30.377Z,3.67
2018-04-17T17:14:57.900Z,2.80
2018-04-17T17:17:25.431Z,2.50
2018-04-17T17:19:53.732Z,3.40
2018-04-17T17:22:22.010Z,3.30
2018-04-17T17:24:50.321Z,2.43
2018-04-17T17:27:17.852Z,2.63
2018-04-17T17:29:46.708Z,3.20
2018-04-17T17:32:14.229Z,2.80
2018-04-17T17:34:41.805Z,3.20
2018-04-17T17:37:09.383Z,3.07
2018-04-17T17:39:36.946Z,3.00
2018-04-17T17:42:04.481Z,3.30
2018-04-17T17:44:32.767Z,2.90
2018-04-17T17:47:00.305Z,3.30
2018-04-17T17:49:28.592Z,2.97
2018-04-17T17:51:56.920Z,2.60
2018-04-17T17:54:24.443Z,2.93
2018-04-17T17:56:52.751Z,4.10
2018-04-17T17:59:20.309Z,4.23
2018-04-17T18:01:47.860Z,3.60
2018-04-17T18:04:16.266Z,3.27
2018-04-17T18:06:44.883Z,3.73
2018-04-17T18:09:12.845Z,3.73
2018-04-17T18:11:40.427Z,3.27
2018-04-17T18:14:08.161Z,3.63
2018-04-17T18:16:35.759Z,4.47
2018-04-17T18:19:03.367Z,3.40
2018-04-17T18:21:30.954Z,3.37
2018-04-17T18:23:58.520Z,3.37
2018-04-17T18:26:27.007Z,3.90
2018-04-17T18:28:54.598Z,3.60
2018-04-17T18:31:22.561Z,3.63
2018-04-17T18:33:50.125Z,3.40
2018-04-17T18:36:17.721Z,4.43
2018-04-17T18:38:45.338Z,4.33
2018-04-17T18:41:12.941Z,4.10
2018-04-17T18:43:40.557Z,3.63
2018-04-17T18:46:08.162Z,4.37
2018-04-17T18:48:35.754Z,3.43
2018-04-17T18:51:03.397Z,3.93
2018-04-17T18:53:31.781Z,3.30
2018-04-17T18:55:59.419Z,5.20
2018-04-17T18:58:27.249Z,3.97
2018-04-17T19:00:55.693Z,3.50
2018-04-17T19:03:23.803Z,4.00
2018-04-17T19:05:52.259Z,4.50
2018-04-17T19:08:19.861Z,3.97
2018-04-17T19:10:48.283Z,4.90
2018-04-17T19:13:15.925Z,5.03
2018-04-17T19:15:44.348Z,5.13
2018-04-17T19:18:11.981Z,4.60
2018-04-17T19:20:39.613Z,5.03
2018-04-17T19:23:07.254Z,4.23
2018-04-17T19:25:34.848Z,5.70
2018-04-17T19:28:02.460Z,4.80
2018-04-17T19:30:30.084Z,4.93
2018-04-17T19:32:57.715Z,5.93
2018-04-17T19:35:25.315Z,5.30
2018-04-17T19:37:54.673Z,3.80
2018-04-17T19:40:22.257Z,5.17
2018-04-17T19:42:49.843Z,5.20
2018-04-17T19:45:17.499Z,5.50
2018-04-17T19:47:45.085Z,5.03
2018-04-17T19:50:13.473Z,4.93
2018-04-17T19:52:41.899Z,9.23
2018-04-17T19:55:10.209Z,8.07
2018-04-17T19:57:37.815Z,13.73
2018-04-17T20:00:06.209Z,9.87
2018-04-17T20:02:33.861Z,10.67
2018-04-17T20:05:02.397Z,14.07
2018-04-17T20:07:30.020Z,31.40
2018-04-17T20:09:57.645Z,85.00
2018-04-17T20:12:25.244Z,105.83
2018-04-17T20:14:53.658Z,86.93
2018-04-17T20:17:21.226Z,29.50
2018-04-17T20:19:48.817Z,14.20
2018-04-17T20:22:16.391Z,10.83
2018-04-17T20:24:44.011Z,10.70
2018-04-17T20:27:11.590Z,7.17
2018-04-17T20:29:39.196Z,7.23
2018-04-17T20:32:06.731Z,8.30
2018-04-17T20:34:34.305Z,6.80
2018-04-17T20:37:01.849Z,6.50
2018-04-17T20:39:29.405Z,6.90
2018-04-17T20:41:56.928Z,5.20
2018-04-17T20:44:24.452Z,6.00
2018-04-17T20:46:52.010Z,5.93
2018-04-17T20:49:19.552Z,6.20
2018-04-17T20:51:47.062Z,4.50
2018-04-17T20:54:14.639Z,5.83
2018-04-17T20:56:42.175Z,6.87
2018-04-17T20:59:09.695Z,6.60
2018-04-17T21:01:37.984Z,7.60
2018-04-17T21:04:06.264Z,10.50
2018-04-17T21:06:34.580Z,6.63
2018-04-17T21:09:02.104Z,6.13
2018-04-17T21:11:30.388Z,6.00
2018-04-17T21:13:58.694Z,6.47
2018-04-17T21:16:26.219Z,5.47
2018-04-17T21:18:54.524Z,4.63
2018-04-17T21:21:22.045Z,6.00
2018-04-17T21:23:49.560Z,5.43
2018-04-17T21:26:17.096Z,6.43
2018-04-17T21:28:45.400Z,5.87
2018-04-17T21:31:12.947Z,5.70
2018-04-17T21:33:41.238Z,6.50
2018-04-17T21:36:09.522Z,6.60
2018-04-17T21:38:37.046Z,4.50
2018-04-17T21:41:04.605Z,4.97
2018-04-17T21:43:32.163Z,5.00
2018-04-17T21:45:59.688Z,5.23
2018-04-17T21:48:27.216Z,5.00
2018-04-17T21:50:54.743Z,4.30
2018-04-17T21:53:22.265Z,4.20
2018-04-17T21:55:50.531Z,4.60
2018-04-17T21:58:18.815Z,5.90
2018-04-17T22:00:47.101Z,5.90
2018-04-17T22:03:15.385Z,5.20
2018-04-17T22:05:43.688Z,6.07
2018-04-17T22:08:11.195Z,6.67
2018-04-17T22:10:38.727Z,6.50
2018-04-17T22:13:06.248Z,7.83
2018-04-17T22:15:34.522Z,8.33
2018-04-17T22:18:02.798Z,9.00
2018-04-17T22:20:30.308Z,8.10
2018-04-17T22:22:57.831Z,7.63
2018-04-17T22:25:25.344Z,7.10
2018-04-17T22:27:52.850Z,7.20
2018-04-17T22:30:21.137Z,6.10
2018-04-17T22:32:49.412Z,5.80
2018-04-17T22:35:16.940Z,6.27
2018-04-17T22:37:44.454Z,6.60
2018-04-17T22:40:12.749Z,7.10
2018-04-17T22:42:40.285Z,6.17
2018-04-17T22:45:07.800Z,6.37
2018-04-17T22:47:36.343Z,7.23
2018-04-17T22:50:03.859Z,7.50
2018-04-17T22:52:31.396Z,6.40
2018-04-17T22:54:58.910Z,7.50
2018-04-17T22:57:26.427Z,8.77
2018-04-17T22:59:53.953Z,10.10
2018-04-17T23:02:21.467Z,9.50
2018-04-17T23:04:49.001Z,10.03
2018-04-17T23:07:17.303Z,8.67
2018-04-17T23:09:44.834Z,8.70
2018-04-17T23:12:13.112Z,8.50
2018-04-17T23:14:40.639Z,6.93
2018-04-17T23:17:08.152Z,7.70
2018-04-17T23:19:36.423Z,7.60
2018-04-17T23:22:04.718Z,9.00
2018-04-17T23:24:32.227Z,8.10
2018-04-17T23:27:00.553Z,7.33
2018-04-17T23:29:28.839Z,6.73
2018-04-17T23:31:57.136Z,7.00
2018-04-17T23:34:24.643Z,5.90
2018-04-17T23:36:52.170Z,6.40
2018-04-17T23:39:19.687Z,6.83
2018-04-17T23:41:47.183Z,5.40
2018-04-17T23:44:15.473Z,5.10
2018-04-17T23:46:42.988Z,4.93
2018-04-17T23:49:10.527Z,6.10
2018-04-17T23:51:38.032Z,5.63
2018-04-17T23:54:05.570Z,5.33
2018-04-17T23:56:33.083Z,5.40
2018-04-17T23:59:01.380Z,5.40
